createdAt,value
2019-02-22T00:05:05.442Z,40.60
2019-02-22T00:10:25.554Z,45.07
2019-02-22T00:15:44.588Z,38.87
2019-02-22T00:21:03.215Z,43.20
2019-02-22T00:26:21.535Z,49.43
2019-02-22T00:31:40.260Z,40.37
2019-02-22T00:36:58.972Z,40.70
2019-02-22T00:42:17.701Z,38.37
2019-02-22T00:47:36.399Z,41.13
2019-02-22T00:52:54.897Z,46.03
2019-02-22T00:58:13.941Z,39.93
2019-02-22T01:03:33.032Z,52.50
2019-02-22T01:08:53.213Z,48.77
2019-02-22T01:14:11.685Z,47.83
2019-02-22T01:19:31.215Z,48.87
2019-02-22T01:24:49.673Z,46.33
2019-02-22T01:30:08.665Z,44.70
2019-02-22T01:35:27.498Z,44.77
2019-02-22T01:40:46.519Z,45.60
2019-02-22T01:46:05.622Z,50.77
2019-02-22T01:51:25.087Z,37.63
2019-02-22T01:56:43.434Z,41.40
2019-02-22T02:02:02.542Z,44.83
2019-02-22T02:07:21.877Z,46.33
2019-02-22T02:12:40.960Z,46.03
2019-02-22T02:17:59.597Z,52.60
2019-02-22T02:23:18.037Z,46.80
2019-02-22T02:28:36.795Z,46.73
2019-02-22T02:33:55.295Z,61.40
2019-02-22T02:39:14.446Z,115.40
2019-02-22T02:44:33.576Z,48.20
2019-02-22T02:49:54.479Z,54.20
2019-02-22T02:55:26.916Z,50.13
2019-02-22T03:00:46.450Z,54.63
2019-02-22T03:06:37.170Z,49.20
2019-02-22T03:11:56.269Z,50.23
2019-02-22T03:17:14.871Z,57.00
2019-02-22T03:22:33.590Z,61.20
2019-02-22T03:27:52.642Z,71.53
2019-02-22T03:33:11.410Z,68.50
2019-02-22T03:38:30.546Z,63.27
2019-02-22T03:43:49.660Z,77.37
2019-02-22T03:49:08.397Z,77.43
2019-02-22T03:54:27.189Z,93.70
2019-02-22T03:59:45.897Z,110.47
2019-02-22T04:05:05.702Z,110.77
2019-02-22T04:10:26.417Z,103.87
2019-02-22T04:15:45.649Z,116.33
2019-02-22T04:21:04.852Z,122.73
2019-02-22T04:26:24.220Z,209.90
2019-02-22T04:31:43.601Z,168.50
2019-02-22T04:37:01.986Z,214.10
2019-02-22T04:42:20.958Z,180.63
2019-02-22T04:47:39.899Z,391.10
2019-02-22T04:52:58.790Z,181.77
2019-02-22T04:58:17.744Z,160.90
2019-02-22T05:03:36.677Z,196.50
2019-02-22T05:08:55.616Z,147.43
2019-02-22T05:14:14.502Z,167.80
2019-02-22T05:19:33.663Z,102.47
2019-02-22T05:30:15.517Z,109.47
2019-02-22T05:35:45.624Z,98.20
2019-02-22T05:41:07.621Z,84.63
2019-02-22T05:46:26.354Z,112.23
2019-02-22T05:51:46.161Z,109.03
2019-02-22T05:57:05.705Z,104.03
2019-02-22T06:02:24.392Z,83.37
2019-02-22T06:07:43.246Z,115.90
2019-02-22T06:13:02.097Z,57.03
2019-02-22T06:18:23.050Z,85.30
2019-02-22T06:23:39.406Z,107.77
2019-02-22T06:28:59.204Z,137.17
2019-02-22T06:34:18.469Z,173.70
2019-02-22T06:39:38.509Z,158.40
2019-02-22T06:44:57.812Z,174.53
2019-02-22T06:50:17.090Z,134.27
2019-02-22T06:55:35.790Z,156.40
2019-02-22T07:00:54.597Z,110.13
2019-02-22T07:06:13.074Z,100.60
2019-02-22T07:11:51.791Z,186.40
2019-02-22T07:17:10.724Z,92.53
2019-02-22T07:22:29.777Z,96.10
2019-02-22T07:27:49.523Z,144.47
2019-02-22T07:33:08.057Z,171.43
2019-02-22T07:38:26.963Z,162.67
2019-02-22T07:43:45.517Z,98.50
2019-02-22T07:49:04.622Z,175.20
2019-02-22T07:54:23.771Z,131.70
2019-02-22T07:59:42.264Z,121.50
2019-02-22T08:05:00.859Z,203.93
2019-02-22T08:10:19.610Z,171.63
2019-02-22T08:15:38.689Z,208.03
2019-02-22T08:20:57.428Z,189.53
2019-02-22T08:26:15.987Z,89.30
2019-02-22T08:31:34.809Z,156.33
2019-02-22T08:36:53.399Z,209.47
2019-02-22T08:42:12.347Z,158.87
2019-02-22T08:47:32.055Z,99.73
2019-02-22T08:52:51.408Z,154.67
2019-02-22T08:58:10.110Z,112.53
2019-02-22T09:03:28.794Z,157.47
2019-02-22T09:08:47.526Z,127.57
2019-02-22T09:14:06.743Z,121.10
2019-02-22T09:19:25.298Z,119.53
2019-02-22T09:24:44.976Z,181.57
2019-02-22T09:30:04.108Z,115.03
2019-02-22T09:35:23.114Z,214.87
2019-02-22T09:40:42.146Z,175.97
2019-02-22T09:46:01.408Z,164.87
2019-02-22T09:51:20.551Z,240.57
2019-02-22T09:56:39.188Z,99.07
2019-02-22T10:01:57.931Z,101.10
2019-02-22T10:07:16.868Z,205.53
2019-02-22T10:12:35.691Z,172.37
2019-02-22T10:17:54.678Z,174.77
2019-02-22T10:23:13.252Z,150.90
2019-02-22T10:28:31.967Z,75.27
2019-02-22T10:33:50.495Z,83.60
2019-02-22T10:39:09.773Z,218.50
2019-02-22T10:44:28.419Z,179.70
2019-02-22T10:49:47.576Z,216.70
2019-02-22T10:55:06.860Z,150.97
2019-02-22T11:00:25.987Z,345.43
2019-02-22T11:05:45.013Z,122.00
2019-02-22T11:11:04.478Z,148.27
2019-02-22T11:16:23.810Z,174.27
2019-02-22T11:21:43.112Z,128.80
2019-02-22T11:27:01.544Z,158.10
2019-02-22T11:32:20.102Z,125.53
2019-02-22T11:37:39.279Z,77.63
2019-02-22T11:42:59.078Z,114.80
2019-02-22T11:48:17.788Z,56.63
2019-02-22T11:53:48.438Z,101.70
2019-02-22T12:05:22.775Z,101.67
2019-02-22T12:10:41.596Z,27.73
2019-02-22T12:16:01.528Z,19.67
2019-02-22T12:21:23.088Z,17.37
2019-02-22T12:26:39.647Z,42.10
2019-02-22T12:32:00.424Z,16.47
2019-02-22T12:37:19.653Z,16.97
2019-02-22T12:42:39.298Z,16.47
2019-02-22T12:47:58.835Z,12.60
2019-02-22T12:53:18.365Z,16.97
2019-02-22T12:58:37.147Z,7.40
2019-02-22T13:03:56.021Z,16.27
2019-02-22T13:09:14.716Z,31.90
2019-02-22T13:14:34.727Z,14.27
2019-02-22T13:19:53.705Z,5.83
2019-02-22T13:25:12.746Z,14.00
2019-02-22T13:30:32.366Z,11.63
2019-02-22T13:35:52.119Z,15.87
2019-02-22T13:41:14.090Z,12.27
2019-02-22T13:46:33.367Z,13.47
2019-02-22T13:51:54.329Z,16.13
2019-02-22T13:57:13.309Z,26.63
2019-02-22T14:02:32.983Z,15.60
2019-02-22T14:07:55.586Z,36.17
2019-02-22T14:13:14.778Z,29.47
2019-02-22T14:18:33.929Z,30.27
2019-02-22T14:23:53.739Z,31.60
2019-02-22T14:29:12.706Z,16.37
2019-02-22T14:34:32.043Z,27.43
2019-02-22T14:40:01.027Z,29.40
2019-02-22T14:45:11.216Z,88.57
2019-02-22T14:50:30.525Z,22.87
2019-02-22T14:55:49.540Z,49.97
2019-02-22T15:01:11.440Z,30.13
2019-02-22T15:06:31.241Z,50.57
2019-02-22T15:11:50.704Z,67.00
2019-02-22T15:17:41.240Z,24.83
2019-02-22T15:23:02.624Z,23.87
2019-02-22T15:28:20.129Z,26.10
2019-02-22T15:33:39.241Z,36.10
2019-02-22T15:38:58.517Z,51.13
2019-02-22T15:50:25.926Z,48.63
2019-02-22T15:55:47.517Z,42.13
2019-02-22T16:01:06.489Z,59.70
2019-02-22T16:06:26.004Z,42.23
2019-02-22T16:11:45.741Z,83.27
2019-02-22T16:17:05.638Z,69.93
2019-02-22T16:22:24.662Z,56.00
2019-02-22T16:27:43.739Z,58.40
2019-02-22T16:33:03.248Z,40.57
2019-02-22T16:38:22.007Z,103.40
2019-02-22T16:43:41.091Z,31.80
2019-02-22T16:48:59.846Z,44.27
2019-02-22T16:54:19.067Z,38.03
2019-02-22T16:59:38.670Z,32.50
2019-02-22T17:04:57.960Z,38.30
2019-02-22T17:10:17.289Z,34.57
2019-02-22T17:15:36.249Z,39.47
2019-02-22T17:20:56.872Z,40.03
2019-02-22T17:26:16.249Z,54.40
2019-02-22T17:31:36.708Z,61.23
2019-02-22T17:36:56.022Z,70.43
2019-02-22T17:42:16.546Z,100.17
2019-02-22T17:47:36.231Z,61.63
2019-02-22T17:52:55.929Z,28.33
2019-02-22T17:58:23.904Z,33.83
2019-02-22T18:03:33.918Z,35.40
2019-02-22T18:08:53.848Z,36.43
2019-02-22T18:14:13.989Z,35.23
2019-02-22T18:19:33.176Z,38.00
2019-02-22T18:24:52.827Z,32.50
2019-02-22T18:30:12.337Z,44.73
2019-02-22T18:35:32.354Z,53.57
2019-02-22T18:40:54.111Z,52.20
2019-02-22T18:46:13.442Z,35.40
2019-02-22T18:51:32.394Z,26.30
2019-02-22T18:56:51.149Z,25.67
2019-02-22T19:02:10.409Z,37.03
2019-02-22T19:07:31.306Z,21.30
2019-02-22T19:12:50.898Z,27.53
2019-02-22T19:18:10.361Z,35.73
2019-02-22T19:23:29.965Z,30.60
2019-02-22T19:28:50.075Z,22.03
2019-02-22T19:34:09.620Z,30.00
2019-02-22T19:39:31.048Z,24.70
2019-02-22T19:44:51.656Z,38.87
2019-02-22T19:50:12.583Z,23.80
2019-02-22T19:55:32.303Z,27.43
2019-02-22T20:00:51.299Z,29.87
2019-02-22T20:06:10.612Z,41.50
2019-02-22T20:11:30.057Z,39.97
2019-02-22T20:16:49.528Z,22.77
2019-02-22T20:22:10.926Z,19.80
2019-02-22T20:27:28.754Z,15.63
2019-02-22T20:32:47.844Z,38.97
2019-02-22T20:38:07.767Z,26.40
2019-02-22T20:43:26.559Z,19.33
2019-02-22T20:48:47.161Z,39.50
2019-02-22T20:54:06.656Z,33.07
2019-02-22T20:59:25.595Z,11.13
2019-02-22T21:04:45.380Z,41.50
2019-02-22T21:10:04.934Z,15.60
2019-02-22T21:15:24.754Z,27.43
2019-02-22T21:20:45.070Z,37.07
2019-02-22T21:26:05.972Z,34.33
2019-02-22T21:31:25.874Z,24.00
2019-02-22T21:36:45.569Z,16.73
2019-02-22T21:42:06.709Z,10.97
2019-02-22T21:47:26.089Z,21.83
2019-02-22T21:52:45.418Z,23.03
2019-02-22T21:58:04.615Z,13.50
2019-02-22T22:03:24.057Z,16.87
2019-02-22T22:08:43.005Z,27.00
2019-02-22T22:14:02.034Z,71.03
2019-02-22T22:19:21.125Z,107.87
2019-02-22T22:24:40.153Z,18.70
2019-02-22T22:29:58.808Z,15.67
2019-02-22T22:35:19.048Z,16.83
2019-02-22T22:40:38.320Z,17.43
2019-02-22T22:45:56.950Z,12.90
2019-02-22T22:51:15.936Z,16.20
2019-02-22T22:56:36.457Z,15.13
2019-02-22T23:01:56.957Z,16.73
2019-02-22T23:07:16.648Z,13.83
2019-02-22T23:12:35.122Z,16.23
2019-02-22T23:17:54.350Z,78.07
2019-02-22T23:23:13.579Z,18.67
2019-02-22T23:28:32.579Z,19.30
2019-02-22T23:33:51.592Z,22.70
2019-02-22T23:39:10.501Z,111.10
2019-02-22T23:44:28.998Z,16.50
2019-02-22T23:49:47.746Z,18.70
2019-02-22T23:55:06.639Z,13.47
